sensor_id;sensor_type;location;lat;lon;timestamp;pressure;altitude;pressure_sealevel;temperature;humidity
71195;BME280;58908;51.426;7.714;2023-02-05T00:00:13;101846.91;;;1.93;100.00
71195;BME280;58908;51.426;7.714;2023-02-05T00:02:40;101846.06;;;1.96;100.00
71195;BME280;58908;51.426;7.714;2023-02-05T00:05:06;101847.84;;;2.00;100.00
71195;BME280;58908;51.426;7.714;2023-02-05T00:07:32;101843.53;;;2.02;100.00
71195;BME280;58908;51.426;7.714;2023-02-05T00:09:59;101844.44;;;2.04;100.00
71195;BME280;58908;51.426;7.714;2023-02-05T00:12:26;101848.81;;;2.11;100.00
71195;BME280;58908;51.426;7.714;2023-02-05T00:14:52;101847.13;;;2.14;100.00
71195;BME280;58908;51.426;7.714;2023-02-05T00:17:19;101844.56;;;2.16;100.00
71195;BME280;58908;51.426;7.714;2023-02-05T00:19:45;101841.00;;;2.11;100.00
71195;BME280;58908;51.426;7.714;2023-02-05T00:22:11;101829.75;;;2.13;100.00
71195;BME280;58908;51.426;7.714;2023-02-05T00:24:38;101828.91;;;2.13;100.00
71195;BME280;58908;51.426;7.714;2023-02-05T00:27:04;101821.97;;;2.13;100.00
71195;BME280;58908;51.426;7.714;2023-02-05T00:29:33;101810.75;;;2.20;100.00
71195;BME280;58908;51.426;7.714;2023-02-05T00:31:59;101812.50;;;2.24;100.00
71195;BME280;58908;51.426;7.714;2023-02-05T00:34:25;101817.75;;;2.26;100.00
71195;BME280;58908;51.426;7.714;2023-02-05T00:36:51;101797.75;;;2.23;100.00
71195;BME280;58908;51.426;7.714;2023-02-05T00:39:18;101790.84;;;2.27;100.00
71195;BME280;58908;51.426;7.714;2023-02-05T00:41:44;101784.81;;;2.29;100.00
71195;BME280;58908;51.426;7.714;2023-02-05T00:44:10;101787.44;;;2.35;100.00
71195;BME280;58908;51.426;7.714;2023-02-05T00:46:38;101784.81;;;2.30;100.00
71195;BME280;58908;51.426;7.714;2023-02-05T00:49:04;101785.69;;;2.34;100.00
71195;BME280;58908;51.426;7.714;2023-02-05T00:51:30;101783.13;;;2.37;100.00
71195;BME280;58908;51.426;7.714;2023-02-05T00:53:56;101779.69;;;2.42;100.00
71195;BME280;58908;51.426;7.714;2023-02-05T00:56:22;101771.91;;;2.44;100.00
71195;BME280;58908;51.426;7.714;2023-02-05T00:58:49;101764.97;;;2.46;100.00
71195;BME280;58908;51.426;7.714;2023-02-05T01:01:15;101766.72;;;2.48;100.00
71195;BME280;58908;51.426;7.714;2023-02-05T01:03:42;101756.34;;;2.50;100.00
71195;BME280;58908;51.426;7.714;2023-02-05T01:06:09;101752.84;;;2.49;100.00
71195;BME280;58908;51.426;7.714;2023-02-05T01:08:35;101748.53;;;2.53;100.00
71195;BME280;58908;51.426;7.714;2023-02-05T01:11:04;101752.88;;;2.54;100.00
71195;BME280;58908;51.426;7.714;2023-02-05T01:13:31;101751.16;;;2.56;100.00
71195;BME280;58908;51.426;7.714;2023-02-05T01:15:57;101750.28;;;2.55;100.00
71195;BME280;58908;51.426;7.714;2023-02-05T01:18:23;101744.19;;;2.55;100.00
71195;BME280;58908;51.426;7.714;2023-02-05T01:20:51;101742.47;;;2.55;100.00
71195;BME280;58908;51.426;7.714;2023-02-05T01:23:17;101745.91;;;2.54;100.00
71195;BME280;58908;51.426;7.714;2023-02-05T01:25:43;101737.22;;;2.49;100.00
71195;BME280;58908;51.426;7.714;2023-02-05T01:28:10;101729.38;;;2.45;100.00
71195;BME280;58908;51.426;7.714;2023-02-05T01:30:36;101740.66;;;2.47;100.00
71195;BME280;58908;51.426;7.714;2023-02-05T01:33:03;101735.44;;;2.47;100.00
71195;BME280;58908;51.426;7.714;2023-02-05T01:35:29;101727.66;;;2.48;100.00
71195;BME280;58908;51.426;7.714;2023-02-05T01:37:57;101725.91;;;2.46;100.00
71195;BME280;58908;51.426;7.714;2023-02-05T01:40:23;101714.66;;;2.50;100.00
71195;BME280;58908;51.426;7.714;2023-02-05T01:42:50;101715.53;;;2.53;100.00
71195;BME280;58908;51.426;7.714;2023-02-05T01:48:01;101735.59;;;2.65;100.00
71195;BME280;58908;51.426;7.714;2023-02-05T01:50:29;101739.06;;;2.64;100.00
71195;BME280;58908;51.426;7.714;2023-02-05T01:52:58;101732.94;;;2.57;100.00
71195;BME280;58908;51.426;7.714;2023-02-05T01:55:25;101736.44;;;2.64;100.00
71195;BME280;58908;51.426;7.714;2023-02-05T01:57:52;101731.22;;;2.65;100.00
71195;BME280;58908;51.426;7.714;2023-02-05T02:00:19;101729.53;;;2.70;100.00
71195;BME280;58908;51.426;7.714;2023-02-05T02:02:46;101729.53;;;2.72;100.00
71195;BME280;58908;51.426;7.714;2023-02-05T02:05:13;101720.00;;;2.72;100.00
71195;BME280;58908;51.426;7.714;2023-02-05T02:07:39;101718.25;;;2.74;100.00
71195;BME280;58908;51.426;7.714;2023-02-05T02:10:07;101720.03;;;2.78;100.00
71195;BME280;58908;51.426;7.714;2023-02-05T02:12:36;101707.84;;;2.77;100.00
71195;BME280;58908;51.426;7.714;2023-02-05T02:15:04;101706.19;;;2.84;100.00
71195;BME280;58908;51.426;7.714;2023-02-05T02:17:31;101700.97;;;2.84;100.00
71195;BME280;58908;51.426;7.714;2023-02-05T02:20:04;101685.31;;;2.82;100.00
71195;BME280;58908;51.426;7.714;2023-02-05T02:22:47;101682.72;;;2.84;100.00
71195;BME280;58908;51.426;7.714;2023-02-05T02:25:31;101695.75;;;2.87;100.00
71195;BME280;58908;51.426;7.714;2023-02-05T02:28:04;101694.91;;;2.91;100.00
71195;BME280;58908;51.426;7.714;2023-02-05T02:30:34;101708.81;;;2.94;100.00
71195;BME280;58908;51.426;7.714;2023-02-05T02:33:05;101704.47;;;2.99;100.00
71195;BME280;58908;51.426;7.714;2023-02-05T02:35:35;101709.66;;;2.92;100.00
71195;BME280;58908;51.426;7.714;2023-02-05T02:38:05;101706.16;;;2.88;100.00
71195;BME280;58908;51.426;7.714;2023-02-05T02:40:35;101712.28;;;2.90;100.00
71195;BME280;58908;51.426;7.714;2023-02-05T02:43:03;101714.03;;;2.94;100.00
71195;BME280;58908;51.426;7.714;2023-02-05T02:45:33;101703.63;;;2.96;100.00
71195;BME280;58908;51.426;7.714;2023-02-05T02:48:00;101703.66;;;3.00;100.00
71195;BME280;58908;51.426;7.714;2023-02-05T02:50:28;101703.63;;;3.02;100.00
71195;BME280;58908;51.426;7.714;2023-02-05T02:52:58;101707.13;;;3.02;100.00
71195;BME280;58908;51.426;7.714;2023-02-05T02:55:27;101707.09;;;2.95;100.00
71195;BME280;58908;51.426;7.714;2023-02-05T02:57:54;101700.09;;;2.91;100.00
71195;BME280;58908;51.426;7.714;2023-02-05T03:00:22;101698.41;;;2.96;100.00
71195;BME280;58908;51.426;7.714;2023-02-05T03:02:52;101691.47;;;3.01;100.00
71195;BME280;58908;51.426;7.714;2023-02-05T03:05:21;101688.00;;;3.05;100.00
71195;BME280;58908;51.426;7.714;2023-02-05T03:07:49;101683.72;;;3.14;100.00
71195;BME280;58908;51.426;7.714;2023-02-05T03:10:18;101686.34;;;3.23;100.00
71195;BME280;58908;51.426;7.714;2023-02-05T03:12:46;101686.34;;;3.32;100.00
71195;BME280;58908;51.426;7.714;2023-02-05T03:15:12;101695.94;;;3.42;100.00
71195;BME280;58908;51.426;7.714;2023-02-05T03:17:38;101687.28;;;3.46;100.00
71195;BME280;58908;51.426;7.714;2023-02-05T03:20:07;101683.81;;;3.52;100.00
71195;BME280;58908;51.426;7.714;2023-02-05T03:22:34;101688.91;;;3.07;100.00
71195;BME280;58908;51.426;7.714;2023-02-05T03:25:01;101684.47;;;2.94;100.00
71195;BME280;58908;51.426;7.714;2023-02-05T03:27:27;101673.19;;;2.99;100.00
71195;BME280;58908;51.426;7.714;2023-02-05T03:29:54;101662.84;;;3.11;100.00
71195;BME280;58908;51.426;7.714;2023-02-05T03:32:23;101653.28;;;3.16;100.00
71195;BME280;58908;51.426;7.714;2023-02-05T03:34:55;101656.75;;;3.21;100.00
71195;BME280;58908;51.426;7.714;2023-02-05T03:37:27;101654.19;;;3.27;100.00
71195;BME280;58908;51.426;7.714;2023-02-05T03:40:00;101647.28;;;3.43;100.00
71195;BME280;58908;51.426;7.714;2023-02-05T03:42:30;101649.00;;;3.47;100.00
71195;BME280;58908;51.426;7.714;2023-02-05T03:45:18;101640.31;;;3.54;100.00
71195;BME280;58908;51.426;7.714;2023-02-05T03:47:54;101635.09;;;3.57;100.00
71195;BME280;58908;51.426;7.714;2023-02-05T03:50:27;101643.81;;;3.63;100.00
71195;BME280;58908;51.426;7.714;2023-02-05T03:52:58;101650.78;;;3.66;100.00
71195;BME280;58908;51.426;7.714;2023-02-05T03:55:29;101655.13;;;3.73;100.00
71195;BME280;58908;51.426;7.714;2023-02-05T03:57:57;101645.56;;;3.75;100.00
71195;BME280;58908;51.426;7.714;2023-02-05T04:00:25;101642.09;;;3.76;100.00
71195;BME280;58908;51.426;7.714;2023-02-05T04:02:52;101642.97;;;3.84;100.00
71195;BME280;58908;51.426;7.714;2023-02-05T04:05:18;101645.56;;;3.87;100.00
71195;BME280;58908;51.426;7.714;2023-02-05T04:07:46;101641.22;;;3.89;100.00
71195;BME280;58908;51.426;7.714;2023-02-05T04:10:14;101634.25;;;3.88;100.00
71195;BME280;58908;51.426;7.714;2023-02-05T04:12:40;101640.34;;;3.87;100.00
71195;BME280;58908;51.426;7.714;2023-02-05T04:15:07;101638.59;;;3.86;100.00
71195;BME280;58908;51.426;7.714;2023-02-05T04:17:34;101643.81;;;3.86;100.00
71195;BME280;58908;51.426;7.714;2023-02-05T04:20:01;101646.44;;;3.86;100.00
71195;BME280;58908;51.426;7.714;2023-02-05T04:22:27;101630.78;;;3.86;100.00
71195;BME280;58908;51.426;7.714;2023-02-05T04:24:53;101623.81;;;3.92;100.00
71195;BME280;58908;51.426;7.714;2023-02-05T04:27:21;101632.50;;;3.97;100.00
71195;BME280;58908;51.426;7.714;2023-02-05T04:29:47;101641.22;;;4.02;100.00
71195;BME280;58908;51.426;7.714;2023-02-05T04:32:13;101651.66;;;4.02;100.00
71195;BME280;58908;51.426;7.714;2023-02-05T04:34:39;101648.16;;;4.02;100.00
71195;BME280;58908;51.426;7.714;2023-02-05T04:37:06;101657.72;;;4.03;100.00
71195;BME280;58908;51.426;7.714;2023-02-05T04:39:32;101667.31;;;4.02;100.00
71195;BME280;58908;51.426;7.714;2023-02-05T04:41:58;101668.19;;;4.06;100.00
71195;BME280;58908;51.426;7.714;2023-02-05T04:44:27;101667.28;;;4.08;100.00
71195;BME280;58908;51.426;7.714;2023-02-05T04:46:53;101665.56;;;4.07;100.00
71195;BME280;58908;51.426;7.714;2023-02-05T04:49:19;101669.06;;;4.08;100.00
71195;BME280;58908;51.426;7.714;2023-02-05T04:51:46;101673.38;;;4.07;100.00
71195;BME280;58908;51.426;7.714;2023-02-05T04:54:12;101673.38;;;4.10;100.00
71195;BME280;58908;51.426;7.714;2023-02-05T04:56:38;101666.44;;;4.11;100.00
71195;BME280;58908;51.426;7.714;2023-02-05T04:59:04;101657.72;;;4.10;100.00
71195;BME280;58908;51.426;7.714;2023-02-05T05:01:32;101654.25;;;4.11;100.00
71195;BME280;58908;51.426;7.714;2023-02-05T05:03:58;101661.22;;;4.11;100.00
71195;BME280;58908;51.426;7.714;2023-02-05T05:06:24;101656.88;;;4.11;100.00
71195;BME280;58908;51.426;7.714;2023-02-05T05:08:51;101650.78;;;4.12;100.00
71195;BME280;58908;51.426;7.714;2023-02-05T05:11:18;101642.06;;;4.12;100.00
71195;BME280;58908;51.426;7.714;2023-02-05T05:13:45;101635.09;;;4.17;100.00
71195;BME280;58908;51.426;7.714;2023-02-05T05:16:13;101646.38;;;4.20;100.00
71195;BME280;58908;51.426;7.714;2023-02-05T05:18:40;101640.28;;;4.21;100.00
71195;BME280;58908;51.426;7.714;2023-02-05T05:21:07;101642.03;;;4.25;100.00
71195;BME280;58908;51.426;7.714;2023-02-05T05:23:34;101642.03;;;4.27;100.00
71195;BME280;58908;51.426;7.714;2023-02-05T05:26:03;101635.06;;;4.30;100.00
71195;BME280;58908;51.426;7.714;2023-02-05T05:28:29;101657.72;;;4.34;100.00
71195;BME280;58908;51.426;7.714;2023-02-05T05:30:57;101656.81;;;4.47;100.00
71195;BME280;58908;51.426;7.714;2023-02-05T05:33:25;101669.84;;;4.46;100.00
71195;BME280;58908;51.426;7.714;2023-02-05T05:35:52;101646.38;;;4.40;100.00
71195;BME280;58908;51.426;7.714;2023-02-05T05:38:19;101644.63;;;4.36;100.00
71195;BME280;58908;51.426;7.714;2023-02-05T05:40:45;101638.53;;;4.34;100.00
71195;BME280;58908;51.426;7.714;2023-02-05T05:43:29;101635.91;;;4.32;100.00
71195;BME280;58908;51.426;7.714;2023-02-05T05:46:15;101628.09;;;4.34;100.00
71195;BME280;58908;51.426;7.714;2023-02-05T05:48:46;101627.19;;;4.33;100.00
71195;BME280;58908;51.426;7.714;2023-02-05T05:51:13;101621.13;;;4.34;100.00
71195;BME280;58908;51.426;7.714;2023-02-05T05:53:39;101621.13;;;4.36;100.00
71195;BME280;58908;51.426;7.714;2023-02-05T05:56:06;101619.38;;;4.36;100.00
71195;BME280;58908;51.426;7.714;2023-02-05T05:58:32;101617.63;;;4.37;100.00
71195;BME280;58908;51.426;7.714;2023-02-05T06:00:58;101617.63;;;4.37;100.00
71195;BME280;58908;51.426;7.714;2023-02-05T06:03:25;101615.03;;;4.40;100.00
71195;BME280;58908;51.426;7.714;2023-02-05T06:05:51;101619.34;;;4.38;100.00
71195;BME280;58908;51.426;7.714;2023-02-05T06:08:18;101622.00;;;4.41;100.00
71195;BME280;58908;51.426;7.714;2023-02-05T06:10:45;101623.72;;;4.40;100.00
71195;BME280;58908;51.426;7.714;2023-02-05T06:13:11;101627.22;;;4.41;100.00
71195;BME280;58908;51.426;7.714;2023-02-05T06:15:37;101628.06;;;4.43;100.00
71195;BME280;58908;51.426;7.714;2023-02-05T06:18:03;101630.66;;;4.44;100.00
71195;BME280;58908;51.426;7.714;2023-02-05T06:20:30;101628.94;;;4.46;100.00
71195;BME280;58908;51.426;7.714;2023-02-05T06:22:56;101631.53;;;4.48;100.00
71195;BME280;58908;51.426;7.714;2023-02-05T06:25:23;101621.09;;;4.49;100.00
71195;BME280;58908;51.426;7.714;2023-02-05T06:27:50;101623.72;;;4.51;100.00
71195;BME280;58908;51.426;7.714;2023-02-05T06:30:16;101621.94;;;4.53;100.00
71195;BME280;58908;51.426;7.714;2023-02-05T06:32:42;101618.44;;;4.57;100.00
71195;BME280;58908;51.426;7.714;2023-02-05T06:35:08;101603.63;;;4.56;100.00
71195;BME280;58908;51.426;7.714;2023-02-05T06:37:35;101615.81;;;4.55;100.00
71195;BME280;58908;51.426;7.714;2023-02-05T06:40:01;101605.38;;;4.57;100.00
71195;BME280;58908;51.426;7.714;2023-02-05T06:42:28;101619.28;;;4.58;100.00
71195;BME280;58908;51.426;7.714;2023-02-05T06:44:55;101612.34;;;4.63;100.00
71195;BME280;58908;51.426;7.714;2023-02-05T06:47:21;101609.69;;;4.65;100.00
71195;BME280;58908;51.426;7.714;2023-02-05T06:49:47;101617.50;;;4.69;100.00
71195;BME280;58908;51.426;7.714;2023-02-05T06:52:13;101606.19;;;4.72;100.00
71195;BME280;58908;51.426;7.714;2023-02-05T06:54:40;101600.97;;;4.73;100.00
71195;BME280;58908;51.426;7.714;2023-02-05T06:57:07;101603.56;;;4.75;100.00
71195;BME280;58908;51.426;7.714;2023-02-05T06:59:35;101597.44;;;4.76;100.00
71195;BME280;58908;51.426;7.714;2023-02-05T07:02:01;101600.91;;;4.82;100.00
71195;BME280;58908;51.426;7.714;2023-02-05T07:04:27;101600.91;;;4.82;100.00
71195;BME280;58908;51.426;7.714;2023-02-05T07:06:55;101597.44;;;4.82;100.00
71195;BME280;58908;51.426;7.714;2023-02-05T07:09:21;101593.06;;;4.82;100.00
71195;BME280;58908;51.426;7.714;2023-02-05T07:11:47;101589.56;;;4.86;100.00
71195;BME280;58908;51.426;7.714;2023-02-05T07:14:14;101591.31;;;4.86;100.00
71195;BME280;58908;51.426;7.714;2023-02-05T07:16:42;101594.81;;;4.86;100.00
71195;BME280;58908;51.426;7.714;2023-02-05T07:19:08;101590.44;;;4.90;100.00
71195;BME280;58908;51.426;7.714;2023-02-05T07:21:34;101586.09;;;4.89;100.00
71195;BME280;58908;51.426;7.714;2023-02-05T07:24:00;101580.81;;;4.90;100.00
71195;BME280;58908;51.426;7.714;2023-02-05T07:26:27;101579.09;;;4.91;100.00
71195;BME280;58908;51.426;7.714;2023-02-05T07:28:53;101579.06;;;4.92;100.00
71195;BME280;58908;51.426;7.714;2023-02-05T07:31:19;101573.84;;;4.92;100.00
71195;BME280;58908;51.426;7.714;2023-02-05T07:33:47;101574.72;;;4.91;100.00
71195;BME280;58908;51.426;7.714;2023-02-05T07:36:14;101566.03;;;4.91;100.00
71195;BME280;58908;51.426;7.714;2023-02-05T07:38:41;101566.88;;;4.94;100.00
71195;BME280;58908;51.426;7.714;2023-02-05T07:41:09;101564.22;;;4.96;100.00
71195;BME280;58908;51.426;7.714;2023-02-05T07:43:35;101573.81;;;4.97;100.00
71195;BME280;58908;51.426;7.714;2023-02-05T07:46:02;101567.69;;;4.99;100.00
71195;BME280;58908;51.426;7.714;2023-02-05T07:48:29;101564.22;;;5.00;100.00
71195;BME280;58908;51.426;7.714;2023-02-05T07:50:56;101567.69;;;5.02;100.00
71195;BME280;58908;51.426;7.714;2023-02-05T07:53:23;101559.00;;;4.97;100.00
71195;BME280;58908;51.426;7.714;2023-02-05T07:55:49;101565.09;;;4.98;100.00
71195;BME280;58908;51.426;7.714;2023-02-05T07:58:16;101566.84;;;4.97;100.00
71195;BME280;58908;51.426;7.714;2023-02-05T08:00:43;101564.25;;;4.97;100.00
71195;BME280;58908;51.426;7.714;2023-02-05T08:03:09;101568.63;;;4.95;100.00
71195;BME280;58908;51.426;7.714;2023-02-05T08:05:35;101574.69;;;4.96;100.00
71195;BME280;58908;51.426;7.714;2023-02-05T08:08:04;101561.63;;;4.96;100.00
71195;BME280;58908;51.426;7.714;2023-02-05T08:10:30;101570.34;;;4.95;100.00
71195;BME280;58908;51.426;7.714;2023-02-05T08:12:57;101572.97;;;4.95;100.00
71195;BME280;58908;51.426;7.714;2023-02-05T08:15:23;101573.84;;;4.94;100.00
71195;BME280;58908;51.426;7.714;2023-02-05T08:17:50;101566.88;;;4.94;100.00
71195;BME280;58908;51.426;7.714;2023-02-05T08:20:17;101575.53;;;4.98;100.00
71195;BME280;58908;51.426;7.714;2023-02-05T08:22:43;101568.59;;;4.98;100.00
71195;BME280;58908;51.426;7.714;2023-02-05T08:25:12;101572.03;;;5.03;100.00
71195;BME280;58908;51.426;7.714;2023-02-05T08:27:39;101571.16;;;5.04;100.00
71195;BME280;58908;51.426;7.714;2023-02-05T08:30:07;101574.59;;;5.12;100.00
71195;BME280;58908;51.426;7.714;2023-02-05T08:32:34;101566.72;;;5.18;100.00
71195;BME280;58908;51.426;7.714;2023-02-05T08:35:00;101572.84;;;5.16;100.00
71195;BME280;58908;51.426;7.714;2023-02-05T08:37:26;101574.56;;;5.18;100.00
71195;BME280;58908;51.426;7.714;2023-02-05T08:39:53;101567.59;;;5.16;100.00
71195;BME280;58908;51.426;7.714;2023-02-05T08:42:20;101574.56;;;5.17;100.00
71195;BME280;58908;51.426;7.714;2023-02-05T08:44:48;101564.09;;;5.15;100.00
71195;BME280;58908;51.426;7.714;2023-02-05T08:47:17;101558.88;;;5.17;100.00
71195;BME280;58908;51.426;7.714;2023-02-05T08:49:43;101564.09;;;5.18;100.00
71195;BME280;58908;51.426;7.714;2023-02-05T08:52:10;101558.88;;;5.18;100.00
71195;BME280;58908;51.426;7.714;2023-02-05T08:54:36;101559.75;;;5.14;100.00
71195;BME280;58908;51.426;7.714;2023-02-05T08:57:02;101555.41;;;5.13;100.00
71195;BME280;58908;51.426;7.714;2023-02-05T08:59:30;101552.81;;;5.12;100.00
71195;BME280;58908;51.426;7.714;2023-02-05T09:01:56;101557.16;;;5.13;100.00
71195;BME280;58908;51.426;7.714;2023-02-05T09:04:22;101557.16;;;5.10;100.00
71195;BME280;58908;51.426;7.714;2023-02-05T09:06:49;101552.00;;;5.05;100.00
71195;BME280;58908;51.426;7.714;2023-02-05T09:09:16;101549.38;;;5.04;100.00
71195;BME280;58908;51.426;7.714;2023-02-05T09:11:42;101545.94;;;4.96;100.00
71195;BME280;58908;51.426;7.714;2023-02-05T09:14:10;101545.09;;;4.91;100.00
71195;BME280;58908;51.426;7.714;2023-02-05T09:16:37;101548.59;;;4.88;100.00
71195;BME280;58908;51.426;7.714;2023-02-05T09:19:03;101544.22;;;4.90;100.00
71195;BME280;58908;51.426;7.714;2023-02-05T09:21:30;101547.72;;;4.91;100.00
71195;BME280;58908;51.426;7.714;2023-02-05T09:23:56;101549.44;;;4.92;100.00
71195;BME280;58908;51.426;7.714;2023-02-05T09:26:22;101547.69;;;4.94;100.00
71195;BME280;58908;51.426;7.714;2023-02-05T09:28:49;101551.16;;;4.96;100.00
71195;BME280;58908;51.426;7.714;2023-02-05T09:31:16;101552.91;;;4.98;100.00
71195;BME280;58908;51.426;7.714;2023-02-05T09:33:44;101552.03;;;4.96;100.00
71195;BME280;58908;51.426;7.714;2023-02-05T09:36:11;101556.38;;;4.99;100.00
71195;BME280;58908;51.426;7.714;2023-02-05T09:38:38;101556.38;;;4.97;100.00
71195;BME280;58908;51.426;7.714;2023-02-05T09:41:07;101556.41;;;4.91;100.00
71195;BME280;58908;51.426;7.714;2023-02-05T09:43:37;101553.78;;;4.96;100.00
71195;BME280;58908;51.426;7.714;2023-02-05T09:46:08;101551.22;;;4.90;100.00
71195;BME280;58908;51.426;7.714;2023-02-05T09:48:40;101565.16;;;4.89;100.00
71195;BME280;58908;51.426;7.714;2023-02-05T09:51:09;101558.19;;;4.86;100.00
71195;BME280;58908;51.426;7.714;2023-02-05T09:53:38;101553.00;;;4.83;100.00
71195;BME280;58908;51.426;7.714;2023-02-05T09:56:06;101570.38;;;4.86;100.00
71195;BME280;58908;51.426;7.714;2023-02-05T09:58:33;101579.09;;;4.91;100.00
71195;BME280;58908;51.426;7.714;2023-02-05T10:01:06;101569.50;;;4.88;100.00
71195;BME280;58908;51.426;7.714;2023-02-05T10:03:33;101579.06;;;4.92;100.00
71195;BME280;58908;51.426;7.714;2023-02-05T10:06:10;101586.91;;;5.00;100.00
71195;BME280;58908;51.426;7.714;2023-02-05T10:08:42;101583.41;;;4.96;100.00
71195;BME280;58908;51.426;7.714;2023-02-05T10:11:14;101590.41;;;4.94;100.00
71195;BME280;58908;51.426;7.714;2023-02-05T10:13:44;101590.44;;;4.88;100.00
71195;BME280;58908;51.426;7.714;2023-02-05T10:19:00;101594.81;;;4.80;100.00
71195;BME280;58908;51.426;7.714;2023-02-05T10:21:34;101586.09;;;4.84;100.00
71195;BME280;58908;51.426;7.714;2023-02-05T10:24:15;101599.13;;;4.92;100.00
71195;BME280;58908;51.426;7.714;2023-02-05T10:26:47;101602.56;;;4.98;100.00
71195;BME280;58908;51.426;7.714;2023-02-05T10:29:15;101595.56;;;5.05;100.00
71195;BME280;58908;51.426;7.714;2023-02-05T10:31:48;101593.84;;;5.01;100.00
71195;BME280;58908;51.426;7.714;2023-02-05T10:34:21;101592.97;;;5.00;100.00
71195;BME280;58908;51.426;7.714;2023-02-05T10:36:52;101596.50;;;4.92;100.00
71195;BME280;58908;51.426;7.714;2023-02-05T10:39:20;101595.59;;;5.00;100.00
71195;BME280;58908;51.426;7.714;2023-02-05T10:41:47;101589.47;;;5.01;100.00
71195;BME280;58908;51.426;7.714;2023-02-05T10:44:19;101594.75;;;4.92;100.00
71195;BME280;58908;51.426;7.714;2023-02-05T10:46:48;101595.59;;;5.02;100.00
71195;BME280;58908;51.426;7.714;2023-02-05T10:49:19;101601.72;;;4.96;100.00
71195;BME280;58908;51.426;7.714;2023-02-05T10:51:48;101598.28;;;4.88;100.00
71195;BME280;58908;51.426;7.714;2023-02-05T10:54:16;101601.72;;;5.01;100.00
71195;BME280;58908;51.426;7.714;2023-02-05T10:56:45;101602.50;;;5.09;100.00
71195;BME280;58908;51.426;7.714;2023-02-05T10:59:14;101600.78;;;5.05;100.00
71195;BME280;58908;51.426;7.714;2023-02-05T11:01:44;101600.81;;;4.99;100.00
71195;BME280;58908;51.426;7.714;2023-02-05T11:04:11;101596.44;;;5.04;100.00
71195;BME280;58908;51.426;7.714;2023-02-05T11:06:38;101602.59;;;4.92;100.00
71195;BME280;58908;51.426;7.714;2023-02-05T11:09:26;101602.56;;;4.97;100.00
71195;BME280;58908;51.426;7.714;2023-02-05T11:11:54;101596.50;;;4.96;100.00
71195;BME280;58908;51.426;7.714;2023-02-05T11:14:23;101597.38;;;4.95;100.00
71195;BME280;58908;51.426;7.714;2023-02-05T11:16:52;101594.75;;;4.94;100.00
71195;BME280;58908;51.426;7.714;2023-02-05T11:19:19;101592.13;;;4.94;100.00
71195;BME280;58908;51.426;7.714;2023-02-05T11:21:51;101598.22;;;4.97;100.00
71195;BME280;58908;51.426;7.714;2023-02-05T11:24:23;101593.81;;;5.02;100.00
71195;BME280;58908;51.426;7.714;2023-02-05T11:26:49;101588.66;;;4.90;100.00
71195;BME280;58908;51.426;7.714;2023-02-05T11:29:20;101586.06;;;4.87;100.00
71195;BME280;58908;51.426;7.714;2023-02-05T11:31:49;101582.56;;;4.93;100.00
71195;BME280;58908;51.426;7.714;2023-02-05T11:34:15;101582.56;;;4.94;100.00
71195;BME280;58908;51.426;7.714;2023-02-05T11:36:46;101581.66;;;5.00;100.00
71195;BME280;58908;51.426;7.714;2023-02-05T11:39:19;101575.56;;;4.93;100.00
71195;BME280;58908;51.426;7.714;2023-02-05T11:41:49;101564.19;;;5.03;100.00
71195;BME280;58908;51.426;7.714;2023-02-05T11:44:17;101573.75;;;5.04;100.00
71195;BME280;58908;51.426;7.714;2023-02-05T11:46:46;101569.44;;;5.00;100.00
71195;BME280;58908;51.426;7.714;2023-02-05T11:49:17;101571.16;;;5.04;100.00
71195;BME280;58908;51.426;7.714;2023-02-05T11:51:46;101568.53;;;5.07;100.00
71195;BME280;58908;51.426;7.714;2023-02-05T11:54:18;101566.81;;;5.05;100.00
71195;BME280;58908;51.426;7.714;2023-02-05T11:56:58;101573.78;;;5.01;100.00
71195;BME280;58908;51.426;7.714;2023-02-05T11:59:24;101570.28;;;5.04;100.00
71195;BME280;58908;51.426;7.714;2023-02-05T12:01:52;101571.19;;;5.00;100.00
71195;BME280;58908;51.426;7.714;2023-02-05T12:04:19;101581.66;;;5.00;100.00
71195;BME280;58908;51.426;7.714;2023-02-05T12:06:46;101587.75;;;5.02;100.00
71195;BME280;58908;51.426;7.714;2023-02-05T12:09:16;101588.59;;;5.04;100.00
71195;BME280;58908;51.426;7.714;2023-02-05T12:11:56;101591.22;;;5.02;100.00
71195;BME280;58908;51.426;7.714;2023-02-05T12:14:32;101591.25;;;4.99;100.00
71195;BME280;58908;51.426;7.714;2023-02-05T12:17:04;101599.09;;;5.01;100.00
71195;BME280;58908;51.426;7.714;2023-02-05T12:19:36;101605.16;;;5.01;100.00
71195;BME280;58908;51.426;7.714;2023-02-05T12:22:09;101601.72;;;5.01;100.00
71195;BME280;58908;51.426;7.714;2023-02-05T12:24:44;101604.28;;;5.02;100.00
71195;BME280;58908;51.426;7.714;2023-02-05T12:27:15;101612.16;;;4.99;100.00
71195;BME280;58908;51.426;7.714;2023-02-05T12:29:48;101605.22;;;4.88;100.00
71195;BME280;58908;51.426;7.714;2023-02-05T12:32:20;101606.09;;;4.93;100.00
71195;BME280;58908;51.426;7.714;2023-02-05T12:34:57;101605.22;;;4.92;100.00
71195;BME280;58908;51.426;7.714;2023-02-05T12:37:27;101606.09;;;4.94;100.00
71195;BME280;58908;51.426;7.714;2023-02-05T12:39:58;101605.22;;;4.92;100.00
71195;BME280;58908;51.426;7.714;2023-02-05T12:42:28;101616.56;;;4.91;100.00
71195;BME280;58908;51.426;7.714;2023-02-05T12:44:59;101632.28;;;4.85;100.00
71195;BME280;58908;51.426;7.714;2023-02-05T12:47:37;101626.16;;;4.86;100.00
71195;BME280;58908;51.426;7.714;2023-02-05T12:50:12;101625.31;;;4.89;100.00
71195;BME280;58908;51.426;7.714;2023-02-05T12:52:43;101634.88;;;4.88;100.00
71195;BME280;58908;51.426;7.714;2023-02-05T12:55:17;101621.78;;;4.87;100.00
71195;BME280;58908;51.426;7.714;2023-02-05T12:57:50;101620.09;;;4.83;100.00
71195;BME280;58908;51.426;7.714;2023-02-05T13:00:18;101615.72;;;4.80;100.00